createdAt,value
2016-11-11T00:00:35.407Z,1010.1
2016-11-11T00:01:36.501Z,1010.1
2016-11-11T00:03:39.840Z,1010.1
2016-11-11T00:05:42.677Z,1010.1
2016-11-11T00:06:44.114Z,1010.1
2016-11-11T00:07:45.544Z,1010.1
2016-11-11T00:08:46.978Z,1010.1
2016-11-11T00:09:48.420Z,1010.2
2016-11-11T00:10:49.858Z,1010.3
2016-11-11T00:11:51.293Z,1010.1
2016-11-11T00:12:52.727Z,1010.2
2016-11-11T00:13:54.165Z,1010.2
2016-11-11T00:14:55.604Z,1010.1
2016-11-11T00:15:57.104Z,1010.1
2016-11-11T00:16:58.547Z,1010.2
2016-11-11T00:18:00.015Z,1010.2
2016-11-11T00:19:01.451Z,1010.2
2016-11-11T00:20:03.389Z,1010.1
2016-11-11T00:21:04.827Z,1010.2
2016-11-11T00:22:06.264Z,1010.2
2016-11-11T00:23:07.702Z,1010.2
2016-11-11T00:24:09.131Z,1010.2
2016-11-11T00:25:10.562Z,1010.2
2016-11-11T00:26:12.144Z,1010.2
2016-11-11T00:27:13.576Z,1010.3
2016-11-11T00:28:15.014Z,1010.3
2016-11-11T00:29:16.448Z,1010.3
2016-11-11T00:30:17.890Z,1010.2
2016-11-11T00:31:19.319Z,1010.3
2016-11-11T00:32:20.757Z,1010.3
2016-11-11T00:33:22.193Z,1010.3
2016-11-11T00:34:23.626Z,1010.3
2016-11-11T00:35:25.063Z,1010.3
2016-11-11T00:36:26.494Z,1010.3
2016-11-11T00:37:27.928Z,1010.3
2016-11-11T00:38:29.363Z,1010.3
2016-11-11T00:39:30.795Z,1010.3
2016-11-11T00:40:32.736Z,1010.3
2016-11-11T00:41:34.166Z,1010.3
2016-11-11T00:43:37.016Z,1010.3
2016-11-11T00:45:39.856Z,1010.3
2016-11-11T00:46:41.284Z,1010.4
2016-11-11T00:47:42.723Z,1010.3
2016-11-11T00:48:44.158Z,1010.3
2016-11-11T00:49:45.592Z,1010.3
2016-11-11T00:50:47.026Z,1010.3
2016-11-11T00:51:48.462Z,1010.3
2016-11-11T00:52:49.898Z,1010.3
2016-11-11T00:53:51.344Z,1010.3
2016-11-11T00:54:52.779Z,1010.4
2016-11-11T00:55:54.715Z,1010.4
2016-11-11T00:56:56.149Z,1010.4
2016-11-11T00:57:57.579Z,1010.4
2016-11-11T00:58:59.021Z,1010.4
2016-11-11T01:00:00.455Z,1010.4
2016-11-11T01:01:01.888Z,1010.4
2016-11-11T01:02:03.335Z,1010.4
2016-11-11T01:03:04.769Z,1010.4
2016-11-11T01:04:06.207Z,1010.3
2016-11-11T01:05:07.640Z,1010.3
2016-11-11T01:07:10.475Z,1010.3
2016-11-11T01:08:11.910Z,1010.3
2016-11-11T01:09:13.345Z,1010.3
2016-11-11T01:10:14.779Z,1010.3
2016-11-11T01:11:16.212Z,1010.2
2016-11-11T01:12:18.143Z,1010.3
2016-11-11T01:13:19.573Z,1010.3
2016-11-11T01:14:21.026Z,1010.3
2016-11-11T01:16:23.861Z,1010.3
2016-11-11T01:17:25.296Z,1010.3
2016-11-11T01:18:26.735Z,1010.3
2016-11-11T01:19:28.167Z,1010.3
2016-11-11T01:20:29.597Z,1010.4
2016-11-11T01:21:31.035Z,1010.3
2016-11-11T01:22:32.464Z,1010.4
2016-11-11T01:23:33.931Z,1010.4
2016-11-11T01:25:36.775Z,1010.4
2016-11-11T01:26:38.209Z,1010.3
2016-11-11T01:27:39.645Z,1010.3
2016-11-11T01:28:41.581Z,1010.4
2016-11-11T01:29:43.017Z,1010.3
2016-11-11T01:30:44.445Z,1010.3
2016-11-11T01:32:47.289Z,1010.4
2016-11-11T01:33:48.718Z,1010.4
2016-11-11T01:34:50.148Z,1010.4
2016-11-11T01:35:51.582Z,1010.4
2016-11-11T01:36:53.045Z,1010.4
2016-11-11T01:37:54.478Z,1010.4
2016-11-11T01:38:55.910Z,1010.3
2016-11-11T01:39:57.339Z,1010.3
2016-11-11T01:40:58.773Z,1010.4
2016-11-11T01:42:00.211Z,1010.3
2016-11-11T01:43:01.644Z,1010.4
2016-11-11T01:44:03.074Z,1010.3
2016-11-11T01:45:04.506Z,1010.3
2016-11-11T01:46:06.076Z,1010.3
2016-11-11T01:47:07.514Z,1010.3
2016-11-11T01:48:08.955Z,1010.3
2016-11-11T01:49:10.386Z,1010.3
2016-11-11T01:50:11.823Z,1010.3
2016-11-11T01:51:13.255Z,1010.3
2016-11-11T01:52:15.195Z,1010.3
2016-11-11T01:53:16.633Z,1010.3
2016-11-11T01:54:18.072Z,1010.4
2016-11-11T01:55:19.508Z,1010.4
2016-11-11T01:56:20.942Z,1010.3
2016-11-11T01:57:22.381Z,1010.3
2016-11-11T01:58:23.811Z,1010.3
2016-11-11T01:59:25.246Z,1010.3
2016-11-11T02:00:26.679Z,1010.2
2016-11-11T02:01:28.110Z,1010.3
2016-11-11T02:02:29.542Z,1010.3
2016-11-11T02:03:30.982Z,1010.3
2016-11-11T02:05:33.828Z,1010.3
2016-11-11T02:06:35.270Z,1010.3
2016-11-11T02:07:36.772Z,1010.2
2016-11-11T02:08:38.340Z,1010.2
2016-11-11T02:10:41.181Z,1010.3
2016-11-11T02:11:42.619Z,1010.2
2016-11-11T02:12:44.062Z,1010.2
2016-11-11T02:13:45.504Z,1010.3
2016-11-11T02:14:46.939Z,1010.3
2016-11-11T02:15:48.379Z,1010.3
2016-11-11T02:16:49.833Z,1010.3
2016-11-11T02:17:51.272Z,1010.3
2016-11-11T02:18:52.710Z,1010.4
2016-11-11T02:19:54.184Z,1010.4
2016-11-11T02:20:55.621Z,1010.4
2016-11-11T02:21:57.570Z,1010.4
2016-11-11T02:22:58.639Z,1010.4
2016-11-11T02:24:00.075Z,1010.4
2016-11-11T02:25:01.514Z,1010.4
2016-11-11T02:26:02.953Z,1010.4
2016-11-11T02:27:04.462Z,1010.4
2016-11-11T02:28:05.905Z,1010.4
2016-11-11T02:29:07.340Z,1010.4
2016-11-11T02:30:08.781Z,1010.4
2016-11-11T02:31:10.231Z,1010.4
2016-11-11T02:32:12.169Z,1010.4
2016-11-11T02:33:13.604Z,1010.4
2016-11-11T02:34:15.045Z,1010.3
2016-11-11T02:35:16.488Z,1010.4
2016-11-11T02:36:17.930Z,1010.4
2016-11-11T02:37:19.367Z,1010.4
2016-11-11T02:38:20.806Z,1010.4
2016-11-11T02:39:22.252Z,1010.4
2016-11-11T02:40:23.690Z,1010.4
2016-11-11T02:41:25.129Z,1010.4
2016-11-11T02:42:26.570Z,1010.4
2016-11-11T02:45:30.821Z,1010.4
2016-11-11T02:46:32.258Z,1010.5
2016-11-11T02:47:33.696Z,1010.4
2016-11-11T02:48:35.133Z,1010.5
2016-11-11T02:49:36.572Z,1010.5
2016-11-11T02:50:38.009Z,1010.4
2016-11-11T02:51:39.453Z,1010.4
2016-11-11T02:52:40.902Z,1010.5
2016-11-11T02:53:42.336Z,1010.4
2016-11-11T02:54:43.773Z,1010.4
2016-11-11T02:55:45.205Z,1010.4
2016-11-11T02:56:46.678Z,1010.5
2016-11-11T02:57:48.124Z,1010.4
2016-11-11T02:58:50.066Z,1010.4
2016-11-11T02:59:51.504Z,1010.5
2016-11-11T03:00:52.943Z,1010.4
2016-11-11T03:01:54.380Z,1010.5
2016-11-11T03:02:55.820Z,1010.5
2016-11-11T03:03:57.257Z,1010.5
2016-11-11T03:04:58.694Z,1010.5
2016-11-11T03:06:00.136Z,1010.5
2016-11-11T03:07:01.579Z,1010.5
2016-11-11T03:08:03.012Z,1010.5
2016-11-11T03:09:04.458Z,1010.5
2016-11-11T03:10:05.898Z,1010.5
2016-11-11T03:11:07.334Z,1010.6
2016-11-11T03:12:08.775Z,1010.6
2016-11-11T03:13:10.206Z,1010.5
2016-11-11T03:14:11.640Z,1010.6
2016-11-11T03:15:13.078Z,1010.6
2016-11-11T03:16:14.516Z,1010.6
2016-11-11T03:18:17.349Z,1010.5
2016-11-11T03:19:18.781Z,1010.6
2016-11-11T03:20:20.216Z,1010.6
2016-11-11T03:21:21.723Z,1010.6
2016-11-11T03:22:23.155Z,1010.6
2016-11-11T03:23:24.586Z,1010.6
2016-11-11T03:24:26.028Z,1010.7
2016-11-11T03:25:27.466Z,1010.7
2016-11-11T03:26:28.904Z,1010.6
2016-11-11T03:27:30.345Z,1010.7
2016-11-11T03:28:31.777Z,1010.6
2016-11-11T03:29:33.214Z,1010.8
2016-11-11T03:30:35.155Z,1010.6
2016-11-11T03:31:36.588Z,1010.7
2016-11-11T03:32:38.025Z,1010.7
2016-11-11T03:33:39.464Z,1010.8
2016-11-11T03:34:40.906Z,1010.8
2016-11-11T03:35:42.339Z,1010.7
2016-11-11T03:36:43.771Z,1010.8
2016-11-11T03:37:45.211Z,1010.9
2016-11-11T03:38:46.643Z,1010.8
2016-11-11T03:39:48.084Z,1010.9
2016-11-11T03:40:49.625Z,1010.9
2016-11-11T03:41:51.059Z,1010.9
2016-11-11T03:42:52.498Z,1010.9
2016-11-11T03:43:53.936Z,1011
2016-11-11T03:44:55.374Z,1010.9
2016-11-11T03:45:56.816Z,1011
2016-11-11T03:46:58.258Z,1011
2016-11-11T03:47:59.691Z,1010.9
2016-11-11T03:49:01.126Z,1010.9
2016-11-11T03:50:02.568Z,1010.9
2016-11-11T03:51:04.001Z,1011
2016-11-11T03:52:05.457Z,1011
2016-11-11T03:53:06.927Z,1011
2016-11-11T03:54:08.363Z,1011
2016-11-11T03:55:09.800Z,1011
2016-11-11T03:56:11.238Z,1011.1
2016-11-11T03:58:14.079Z,1011.1
2016-11-11T03:59:15.517Z,1011.1
2016-11-11T04:00:16.951Z,1011.2
2016-11-11T04:01:18.388Z,1011.1
2016-11-11T04:02:19.827Z,1011.2
2016-11-11T04:03:21.259Z,1011.1
2016-11-11T04:04:22.694Z,1011.2
2016-11-11T04:05:24.126Z,1011.2
2016-11-11T04:06:25.565Z,1011.3
2016-11-11T04:07:27.011Z,1011.3
2016-11-11T04:08:28.449Z,1011.2
2016-11-11T04:09:29.891Z,1011.3
2016-11-11T04:10:31.333Z,1011.2
2016-11-11T04:12:34.675Z,1011.3
2016-11-11T04:13:36.113Z,1011.3
2016-11-11T04:14:37.550Z,1011.3
2016-11-11T04:15:38.977Z,1011.3
2016-11-11T04:16:40.416Z,1011.3
2016-11-11T04:17:41.867Z,1011.2
2016-11-11T04:18:43.308Z,1011.3
2016-11-11T04:19:44.742Z,1011.4
2016-11-11T04:21:47.585Z,1011.3
2016-11-11T04:22:49.018Z,1011.3
2016-11-11T04:23:50.450Z,1011.4
2016-11-11T04:24:51.883Z,1011.3
2016-11-11T04:25:53.320Z,1011.3
2016-11-11T04:26:54.751Z,1011.3
2016-11-11T04:27:56.194Z,1011.3
2016-11-11T04:28:57.625Z,1011.3
2016-11-11T04:31:00.467Z,1011.4
2016-11-11T04:32:01.907Z,1011.4
2016-11-11T04:33:03.343Z,1011.4
2016-11-11T04:34:04.779Z,1011.4
2016-11-11T04:35:06.283Z,1011.4
2016-11-11T04:36:07.720Z,1011.3
2016-11-11T04:37:09.160Z,1011.4
2016-11-11T04:38:10.596Z,1011.4
2016-11-11T04:39:12.031Z,1011.4
2016-11-11T04:40:13.465Z,1011.4
2016-11-11T04:41:14.901Z,1011.4
2016-11-11T04:42:16.337Z,1011.3
2016-11-11T04:43:17.775Z,1011.3
2016-11-11T04:44:19.213Z,1011.3
2016-11-11T04:45:20.647Z,1011.4
2016-11-11T04:46:22.084Z,1011.4
2016-11-11T04:47:23.517Z,1011.4
2016-11-11T04:48:24.955Z,1011.4
2016-11-11T04:49:26.397Z,1011.4
2016-11-11T04:50:27.836Z,1011.4
2016-11-11T04:51:29.269Z,1011.5
2016-11-11T04:52:30.711Z,1011.5
2016-11-11T04:53:32.146Z,1011.6
2016-11-11T04:54:33.585Z,1011.6
2016-11-11T04:55:35.023Z,1011.6
2016-11-11T04:56:36.461Z,1011.6
2016-11-11T04:57:37.963Z,1011.6
2016-11-11T04:58:39.406Z,1011.6
2016-11-11T04:59:40.845Z,1011.6
2016-11-11T05:00:42.283Z,1011.7
2016-11-11T05:01:43.715Z,1011.6
2016-11-11T05:02:45.156Z,1011.7
2016-11-11T05:04:48.504Z,1011.8
2016-11-11T05:05:49.953Z,1011.8
2016-11-11T05:06:51.388Z,1011.9
2016-11-11T05:07:52.861Z,1011.9
2016-11-11T05:08:54.303Z,1011.9
2016-11-11T05:09:55.745Z,1011.9
2016-11-11T05:10:57.189Z,1011.8
2016-11-11T05:11:58.625Z,1011.9
2016-11-11T05:13:00.070Z,1011.9
2016-11-11T05:14:01.506Z,1011.9
2016-11-11T05:15:02.943Z,1011.9
2016-11-11T05:16:04.385Z,1012
2016-11-11T05:17:05.827Z,1012
2016-11-11T05:18:07.264Z,1012
2016-11-11T05:19:08.695Z,1012
2016-11-11T05:20:10.129Z,1012
2016-11-11T05:22:12.996Z,1012.2
2016-11-11T05:23:14.448Z,1012.2
2016-11-11T05:24:16.020Z,1012.1
2016-11-11T05:25:17.463Z,1012.1
2016-11-11T05:26:18.897Z,1012.2
2016-11-11T05:27:20.338Z,1012.1
2016-11-11T05:28:21.413Z,1012.1
2016-11-11T05:29:22.984Z,1012.2
2016-11-11T05:30:24.423Z,1012.1
2016-11-11T05:31:25.857Z,1012.1
2016-11-11T05:32:27.291Z,1012.2
2016-11-11T05:33:28.758Z,1012.2
2016-11-11T05:34:30.187Z,1012.2
2016-11-11T05:35:31.626Z,1012.2
2016-11-11T05:36:33.065Z,1012.1
2016-11-11T05:37:34.503Z,1012.1
2016-11-11T05:38:35.952Z,1012.1
2016-11-11T05:39:37.394Z,1012.1
2016-11-11T05:40:38.830Z,1012.2
2016-11-11T05:41:40.266Z,1012.3
2016-11-11T05:42:41.704Z,1012.2
2016-11-11T05:43:43.142Z,1012.3
2016-11-11T05:44:44.581Z,1012.2
2016-11-11T05:45:46.015Z,1012.2
2016-11-11T05:46:47.457Z,1012.3
2016-11-11T05:47:48.896Z,1012.3
2016-11-11T05:48:50.334Z,1012.3
2016-11-11T05:49:51.767Z,1012.4
2016-11-11T05:50:53.238Z,1012.3
2016-11-11T05:51:54.672Z,1012.3
2016-11-11T05:52:56.108Z,1012.4
2016-11-11T05:53:57.545Z,1012.4
2016-11-11T05:54:59.483Z,1012.5
2016-11-11T05:56:00.924Z,1012.5
2016-11-11T05:58:03.764Z,1012.4
2016-11-11T05:59:05.199Z,1012.4
2016-11-11T06:00:06.645Z,1012.5
2016-11-11T06:01:08.077Z,1012.4
2016-11-11T06:02:09.512Z,1012.4
2016-11-11T06:03:10.955Z,1012.5
2016-11-11T06:05:13.792Z,1012.4
2016-11-11T06:06:15.241Z,1012.4
2016-11-11T06:07:16.676Z,1012.4
2016-11-11T06:08:18.118Z,1012.4
2016-11-11T06:09:19.552Z,1012.4
2016-11-11T06:10:20.986Z,1012.5
2016-11-11T06:12:23.817Z,1012.5
2016-11-11T06:13:25.256Z,1012.5
2016-11-11T06:14:26.692Z,1012.6
2016-11-11T06:15:28.278Z,1012.6
2016-11-11T06:16:29.714Z,1012.5
2016-11-11T06:17:31.148Z,1012.5
2016-11-11T06:18:32.587Z,1012.6
2016-11-11T06:19:34.024Z,1012.6
2016-11-11T06:20:35.467Z,1012.6
2016-11-11T06:21:36.900Z,1012.6
2016-11-11T06:22:38.342Z,1012.7
2016-11-11T06:23:39.779Z,1012.7
2016-11-11T06:25:42.617Z,1012.7
2016-11-11T06:26:44.062Z,1012.7
2016-11-11T06:27:45.494Z,1012.8
2016-11-11T06:28:46.930Z,1012.7
2016-11-11T06:29:48.372Z,1012.8
2016-11-11T06:30:49.812Z,1012.9
2016-11-11T06:31:51.242Z,1012.9
2016-11-11T06:32:52.678Z,1012.8
2016-11-11T06:33:54.112Z,1012.8
2016-11-11T06:34:55.545Z,1012.8
2016-11-11T06:35:56.986Z,1012.8
2016-11-11T06:36:58.424Z,1012.9
2016-11-11T06:37:59.866Z,1012.8
2016-11-11T06:39:01.302Z,1012.9
2016-11-11T06:40:02.737Z,1012.9
2016-11-11T06:41:04.170Z,1012.9
2016-11-11T06:42:05.619Z,1012.9
2016-11-11T06:44:08.957Z,1012.9
2016-11-11T06:45:10.396Z,1013
2016-11-11T06:46:11.466Z,1013
2016-11-11T06:47:12.909Z,1012.9
2016-11-11T06:48:14.341Z,1012.9
2016-11-11T06:49:15.779Z,1012.9
2016-11-11T06:50:17.217Z,1012.9
2016-11-11T06:51:18.650Z,1013
2016-11-11T06:52:20.589Z,1013.1
2016-11-11T06:53:21.656Z,1013
2016-11-11T06:54:23.091Z,1013.1
2016-11-11T06:55:24.536Z,1013.1
2016-11-11T06:56:25.979Z,1013.2
2016-11-11T06:57:27.432Z,1013.2
2016-11-11T06:58:28.874Z,1013.2
2016-11-11T06:59:30.307Z,1013.2
2016-11-11T07:00:31.740Z,1013.4
2016-11-11T07:01:33.179Z,1013.2
2016-11-11T07:02:34.613Z,1013.2
2016-11-11T07:03:36.056Z,1013.3
2016-11-11T07:04:37.494Z,1013.3
2016-11-11T07:05:39.438Z,1013.2
2016-11-11T07:06:40.864Z,1013.2
2016-11-11T07:07:42.297Z,1013.3
2016-11-11T07:08:43.763Z,1013.2
2016-11-11T07:09:45.194Z,1013.4
2016-11-11T07:10:46.633Z,1013.3
2016-11-11T07:12:49.509Z,1013.4
2016-11-11T07:13:50.941Z,1013.4
2016-11-11T07:14:52.373Z,1013.5
2016-11-11T07:15:53.810Z,1013.4
2016-11-11T07:16:55.247Z,1013.5
2016-11-11T07:17:56.695Z,1013.6
2016-11-11T07:18:58.136Z,1013.6
2016-11-11T07:21:00.980Z,1013.6
2016-11-11T07:22:02.413Z,1013.6
2016-11-11T07:23:03.848Z,1013.7
2016-11-11T07:24:05.437Z,1013.7
2016-11-11T07:25:06.878Z,1013.7
2016-11-11T07:26:08.310Z,1013.8
2016-11-11T07:28:11.286Z,1013.8
2016-11-11T07:29:12.722Z,1013.9
2016-11-11T07:30:14.154Z,1013.8
2016-11-11T07:31:15.597Z,1013.8
2016-11-11T07:32:17.040Z,1013.8
2016-11-11T07:33:18.482Z,1013.8
2016-11-11T07:34:19.914Z,1013.9
2016-11-11T07:35:21.357Z,1013.8
2016-11-11T07:36:22.791Z,1013.9
2016-11-11T07:37:24.233Z,1013.9
2016-11-11T07:39:27.078Z,1013.9
2016-11-11T07:40:28.515Z,1013.9
2016-11-11T07:41:29.957Z,1014
2016-11-11T07:42:31.452Z,1014
2016-11-11T07:43:32.898Z,1014
2016-11-11T07:44:34.335Z,1014.1
2016-11-11T07:45:35.769Z,1014.1
2016-11-11T07:46:37.203Z,1014.1
2016-11-11T07:47:38.635Z,1014.1
2016-11-11T07:48:40.069Z,1014.1
2016-11-11T07:49:41.521Z,1014.2
2016-11-11T07:52:45.762Z,1014.3
2016-11-11T07:53:47.200Z,1014.3
2016-11-11T07:54:48.634Z,1014.3
2016-11-11T07:55:50.073Z,1014.3
2016-11-11T07:56:51.510Z,1014.4
2016-11-11T07:58:54.856Z,1014.5
2016-11-11T07:59:56.290Z,1014.3
2016-11-11T08:00:57.724Z,1014.4
2016-11-11T08:01:59.157Z,1014.4
2016-11-11T08:03:00.604Z,1014.4
2016-11-11T08:05:03.455Z,1014.5
2016-11-11T08:06:04.892Z,1014.5
2016-11-11T08:07:06.328Z,1014.5
2016-11-11T08:08:07.827Z,1014.5
2016-11-11T08:09:09.280Z,1014.6
2016-11-11T08:10:10.793Z,1014.6
2016-11-11T08:11:11.893Z,1014.5
2016-11-11T08:12:13.328Z,1014.7
2016-11-11T08:13:14.766Z,1014.6
2016-11-11T08:14:16.199Z,1014.6
2016-11-11T08:15:17.643Z,1014.7
2016-11-11T08:16:19.088Z,1014.7
2016-11-11T08:17:21.030Z,1014.8
2016-11-11T08:18:22.467Z,1014.7
2016-11-11T08:19:23.901Z,1014.7
2016-11-11T08:20:25.333Z,1014.7
2016-11-11T08:21:26.762Z,1014.8
2016-11-11T08:22:28.194Z,1014.8
2016-11-11T08:23:29.630Z,1015
2016-11-11T08:24:31.064Z,1015
2016-11-11T08:25:32.494Z,1015
2016-11-11T08:26:33.928Z,1014.9
2016-11-11T08:27:35.362Z,1014.9
2016-11-11T08:28:36.795Z,1014.9
2016-11-11T08:30:39.628Z,1015
2016-11-11T08:31:41.064Z,1015
2016-11-11T08:32:42.504Z,1015.1
2016-11-11T08:33:43.944Z,1015.1
2016-11-11T08:34:45.380Z,1015
2016-11-11T08:35:46.830Z,1015.1
2016-11-11T08:36:48.272Z,1015.1
2016-11-11T08:37:49.708Z,1015.3
2016-11-11T08:38:51.142Z,1015.1
2016-11-11T08:39:52.576Z,1015.2
2016-11-11T08:40:54.006Z,1015.3
2016-11-11T08:41:55.437Z,1015.3
2016-11-11T08:42:57.380Z,1015.2
2016-11-11T08:43:58.811Z,1015.3
2016-11-11T08:45:00.246Z,1015.2
2016-11-11T08:46:01.685Z,1015.3
2016-11-11T08:47:03.121Z,1015.3
2016-11-11T08:48:04.559Z,1015.3
2016-11-11T08:49:06.004Z,1015.3
2016-11-11T08:50:07.442Z,1015.4
2016-11-11T08:51:08.874Z,1015.4
2016-11-11T08:52:10.310Z,1015.4
2016-11-11T08:53:11.749Z,1015.4
2016-11-11T08:54:13.185Z,1015.5
2016-11-11T08:56:16.031Z,1015.5
2016-11-11T08:57:17.468Z,1015.5
2016-11-11T08:58:18.904Z,1015.5
2016-11-11T08:59:20.544Z,1015.6
2016-11-11T09:00:21.979Z,1015.7
2016-11-11T09:01:23.430Z,1015.6
2016-11-11T09:02:24.863Z,1015.7
2016-11-11T09:03:26.296Z,1015.6
2016-11-11T09:04:27.732Z,1015.6
2016-11-11T09:05:29.168Z,1015.7
2016-11-11T09:06:30.608Z,1015.7
2016-11-11T09:07:32.047Z,1015.7
2016-11-11T09:08:33.480Z,1015.7
2016-11-11T09:09:34.912Z,1015.8
2016-11-11T09:10:36.356Z,1015.7
2016-11-11T09:11:37.791Z,1015.7
2016-11-11T09:12:39.374Z,1015.7
2016-11-11T09:13:40.806Z,1015.8
2016-11-11T09:14:42.289Z,1015.7
2016-11-11T09:15:43.727Z,1015.8
2016-11-11T09:16:45.164Z,1015.8
2016-11-11T09:17:46.598Z,1015.8
2016-11-11T09:18:48.029Z,1015.8
2016-11-11T09:19:49.473Z,1015.8
2016-11-11T09:20:50.908Z,1015.9
2016-11-11T09:21:52.386Z,1015.8
2016-11-11T09:22:53.828Z,1015.8
2016-11-11T09:23:55.262Z,1016
2016-11-11T09:24:56.694Z,1016
2016-11-11T09:25:58.128Z,1015.9
2016-11-11T09:26:59.565Z,1016
2016-11-11T09:28:01.004Z,1016
2016-11-11T09:29:02.437Z,1015.9
2016-11-11T09:30:03.876Z,1016
2016-11-11T09:31:05.318Z,1016
2016-11-11T09:32:06.759Z,1015.9
2016-11-11T09:33:08.195Z,1016.2
2016-11-11T09:34:09.638Z,1016.2
2016-11-11T09:35:11.578Z,1016.2
2016-11-11T09:36:13.013Z,1016.2
2016-11-11T09:37:14.447Z,1016.2
2016-11-11T09:38:15.888Z,1016.3
2016-11-11T09:39:17.324Z,1016.3
2016-11-11T09:40:18.754Z,1016.3
2016-11-11T09:41:20.189Z,1016.3
2016-11-11T09:42:21.625Z,1016.3
2016-11-11T09:43:23.057Z,1016.3
2016-11-11T09:44:24.500Z,1016.3
2016-11-11T09:45:25.931Z,1016.4
2016-11-11T09:46:27.365Z,1016.4
2016-11-11T09:47:28.803Z,1016.4
2016-11-11T09:48:30.377Z,1016.5
2016-11-11T09:50:33.216Z,1016.5
2016-11-11T09:51:34.651Z,1016.6
2016-11-11T09:52:36.089Z,1016.6
2016-11-11T09:53:37.524Z,1016.6
2016-11-11T09:54:38.966Z,1016.6
2016-11-11T09:55:40.399Z,1016.6
2016-11-11T09:56:41.833Z,1016.7
2016-11-11T09:57:43.268Z,1016.7
2016-11-11T09:58:44.711Z,1016.7
2016-11-11T09:59:46.191Z,1016.9
2016-11-11T10:00:47.630Z,1016.8
2016-11-11T10:01:49.071Z,1016.7
2016-11-11T10:02:50.538Z,1016.7
2016-11-11T10:03:51.971Z,1016.8
2016-11-11T10:04:53.405Z,1016.8
2016-11-11T10:05:55.353Z,1016.9
2016-11-11T10:06:56.791Z,1016.7
2016-11-11T10:07:58.224Z,1016.8
2016-11-11T10:08:59.663Z,1016.8
2016-11-11T10:10:01.115Z,1016.8
2016-11-11T10:11:02.183Z,1016.8
2016-11-11T10:12:03.620Z,1016.8
2016-11-11T10:13:05.566Z,1016.9
2016-11-11T10:14:07.005Z,1016.8
2016-11-11T10:15:08.438Z,1016.8
2016-11-11T10:16:09.521Z,1016.9
2016-11-11T10:17:10.960Z,1016.9
2016-11-11T10:18:12.540Z,1016.9
2016-11-11T10:19:13.969Z,1016.9
2016-11-11T10:21:16.800Z,1017
2016-11-11T10:22:18.235Z,1017
2016-11-11T10:23:19.666Z,1017
2016-11-11T10:24:21.608Z,1017
2016-11-11T10:25:23.040Z,1017
2016-11-11T10:26:24.493Z,1016.9
2016-11-11T10:27:25.932Z,1017
2016-11-11T10:28:27.368Z,1017
2016-11-11T10:29:28.814Z,1017.2
2016-11-11T10:30:30.255Z,1017
2016-11-11T10:31:31.688Z,1017
2016-11-11T10:34:35.998Z,1017
2016-11-11T10:35:37.435Z,1017.1
2016-11-11T10:36:38.865Z,1017.1
2016-11-11T10:37:40.302Z,1017
2016-11-11T10:38:41.736Z,1017.1
2016-11-11T10:39:43.174Z,1017.2
2016-11-11T10:40:44.617Z,1017.2
2016-11-11T10:41:46.067Z,1017.1
2016-11-11T10:42:47.503Z,1017.2
2016-11-11T10:43:48.941Z,1017.2
2016-11-11T10:44:50.384Z,1017.2
2016-11-11T10:45:51.822Z,1017.2
2016-11-11T10:46:53.257Z,1017.2
2016-11-11T10:47:55.194Z,1017.2
2016-11-11T10:48:56.629Z,1017.2
2016-11-11T10:49:58.063Z,1017.3
2016-11-11T10:50:59.499Z,1017.2
2016-11-11T10:52:00.929Z,1017.2
2016-11-11T10:53:02.367Z,1017.2
2016-11-11T10:54:03.810Z,1017.2
2016-11-11T10:55:05.399Z,1017.3
2016-11-11T10:56:06.845Z,1017.2
2016-11-11T10:57:08.283Z,1017.3
2016-11-11T10:58:09.719Z,1017.3
2016-11-11T10:59:11.159Z,1017.3
2016-11-11T11:00:12.595Z,1017.3
2016-11-11T11:01:14.038Z,1017.4
2016-11-11T11:02:15.534Z,1017.2
2016-11-11T11:03:16.969Z,1017.3
2016-11-11T11:04:18.407Z,1017.3
2016-11-11T11:05:19.840Z,1017.2
2016-11-11T11:07:22.696Z,1017.3
2016-11-11T11:08:24.135Z,1017.3
2016-11-11T11:09:25.573Z,1017.3
2016-11-11T11:10:27.004Z,1017.3
2016-11-11T11:11:28.436Z,1017.4
2016-11-11T11:12:29.871Z,1017.4
2016-11-11T11:13:31.315Z,1017.4
2016-11-11T11:14:33.250Z,1017.4
2016-11-11T11:15:34.313Z,1017.3
2016-11-11T11:16:35.753Z,1017.3
2016-11-11T11:17:37.192Z,1017.4
2016-11-11T11:18:39.134Z,1017.4
2016-11-11T11:19:40.204Z,1017.5
2016-11-11T11:20:41.638Z,1017.4
2016-11-11T11:21:43.074Z,1017.5
2016-11-11T11:22:44.513Z,1017.5
2016-11-11T11:23:46.111Z,1017.5
2016-11-11T11:24:47.550Z,1017.5
2016-11-11T11:25:48.990Z,1017.6
2016-11-11T11:26:50.433Z,1017.5
2016-11-11T11:27:51.869Z,1017.6
2016-11-11T11:28:53.344Z,1017.7
2016-11-11T11:29:54.781Z,1017.7
2016-11-11T11:30:56.220Z,1017.7
2016-11-11T11:31:58.161Z,1017.7
2016-11-11T11:32:59.596Z,1017.7
2016-11-11T11:34:01.031Z,1017.8
2016-11-11T11:35:02.098Z,1017.8
2016-11-11T11:36:04.044Z,1017.8
2016-11-11T11:37:05.482Z,1017.7
2016-11-11T11:38:06.918Z,1017.9
2016-11-11T11:39:08.357Z,1017.8
2016-11-11T11:40:09.798Z,1017.8
2016-11-11T11:41:11.235Z,1017.8
2016-11-11T11:42:12.684Z,1017.8
2016-11-11T11:43:14.123Z,1017.8
2016-11-11T11:44:15.568Z,1017.9
2016-11-11T11:47:19.811Z,1017.9
2016-11-11T11:48:21.309Z,1017.8
2016-11-11T11:49:22.745Z,1017.8
2016-11-11T11:50:24.190Z,1017.8
2016-11-11T11:51:25.620Z,1017.9
2016-11-11T11:52:27.261Z,1017.8
2016-11-11T11:53:28.696Z,1017.8
2016-11-11T11:54:30.141Z,1017.8
2016-11-11T11:55:31.575Z,1017.8
2016-11-11T11:56:33.050Z,1018
2016-11-11T11:57:34.496Z,1018
2016-11-11T11:58:35.936Z,1018.1
2016-11-11T11:59:37.374Z,1018
2016-11-11T12:00:38.807Z,1018
2016-11-11T12:01:40.244Z,1018
2016-11-11T12:02:42.185Z,1018
2016-11-11T12:03:43.624Z,1018
2016-11-11T12:04:45.064Z,1018.1
2016-11-11T12:05:46.494Z,1018.1
2016-11-11T12:06:47.928Z,1018
2016-11-11T12:07:49.370Z,1018.1
2016-11-11T12:08:50.814Z,1018.1
2016-11-11T12:09:52.387Z,1018.1
2016-11-11T12:10:53.819Z,1018
2016-11-11T12:11:55.252Z,1018.1
2016-11-11T12:12:56.690Z,1018
2016-11-11T12:13:58.335Z,1018
2016-11-11T12:14:59.775Z,1018.1
2016-11-11T12:16:01.208Z,1018.1
2016-11-11T12:17:02.646Z,1018.1
2016-11-11T12:18:04.089Z,1018.1
2016-11-11T12:19:05.529Z,1018.1
2016-11-11T12:20:06.967Z,1018.1
2016-11-11T12:21:08.400Z,1018.2
2016-11-11T12:22:09.839Z,1018.1
2016-11-11T12:23:11.275Z,1018.2
2016-11-11T12:24:12.720Z,1018.2
2016-11-11T12:25:14.157Z,1018.2
2016-11-11T12:26:15.603Z,1018.2
2016-11-11T12:27:17.043Z,1018.3
2016-11-11T12:28:18.474Z,1018.3
2016-11-11T12:29:19.908Z,1018.3
2016-11-11T12:30:21.350Z,1018.3
2016-11-11T12:31:23.290Z,1018.3
2016-11-11T12:32:24.728Z,1018.4
2016-11-11T12:34:27.564Z,1018.5
2016-11-11T12:35:29.000Z,1018.4
2016-11-11T12:36:30.433Z,1018.4
2016-11-11T12:37:31.870Z,1018.5
2016-11-11T12:38:33.308Z,1018.5
2016-11-11T12:39:34.738Z,1018.5
2016-11-11T12:40:36.180Z,1018.5
2016-11-11T12:41:37.614Z,1018.5
2016-11-11T12:43:40.586Z,1018.5
2016-11-11T12:44:42.023Z,1018.5
2016-11-11T12:45:43.465Z,1018.5
2016-11-11T12:46:44.899Z,1018.6
2016-11-11T12:47:46.332Z,1018.6
2016-11-11T12:48:47.764Z,1018.6
2016-11-11T12:49:49.702Z,1018.6
2016-11-11T12:50:51.144Z,1018.7
2016-11-11T12:52:53.987Z,1018.6
2016-11-11T12:53:55.427Z,1018.6
2016-11-11T12:54:56.870Z,1018.7
2016-11-11T12:55:58.309Z,1018.7
2016-11-11T12:56:59.736Z,1018.7
2016-11-11T12:58:01.172Z,1018.7
2016-11-11T12:59:02.606Z,1018.7
2016-11-11T13:00:04.040Z,1018.7
2016-11-11T13:01:05.474Z,1018.7
2016-11-11T13:02:06.915Z,1018.7
2016-11-11T13:03:08.354Z,1018.8
2016-11-11T13:04:09.791Z,1018.8
2016-11-11T13:05:11.233Z,1018.8
2016-11-11T13:06:13.173Z,1018.8
2016-11-11T13:07:14.608Z,1018.9
2016-11-11T13:08:16.048Z,1018.9
2016-11-11T13:09:17.482Z,1018.9
2016-11-11T13:10:18.922Z,1018.9
2016-11-11T13:11:20.357Z,1019
2016-11-11T13:12:21.789Z,1019
2016-11-11T13:13:23.224Z,1018.9
2016-11-11T13:14:24.661Z,1018.9
2016-11-11T13:15:26.102Z,1019
2016-11-11T13:16:27.547Z,1019
2016-11-11T13:17:28.981Z,1019
2016-11-11T13:18:30.411Z,1019
2016-11-11T13:19:31.853Z,1019
2016-11-11T13:20:33.284Z,1019
2016-11-11T13:21:34.860Z,1019
2016-11-11T13:22:36.301Z,1019.1
2016-11-11T13:23:37.734Z,1019.1
2016-11-11T13:24:39.174Z,1019.1
2016-11-11T13:25:40.609Z,1019.1
2016-11-11T13:26:42.043Z,1019.1
2016-11-11T13:28:45.390Z,1019.1
2016-11-11T13:29:46.821Z,1019.1
2016-11-11T13:30:48.260Z,1019.1
2016-11-11T13:31:49.696Z,1019.2
2016-11-11T13:32:51.135Z,1019.2
2016-11-11T13:33:52.572Z,1019.1
2016-11-11T13:34:54.011Z,1019.2
2016-11-11T13:35:55.447Z,1019.2
2016-11-11T13:36:56.879Z,1019.2